createdAt,value
2017-02-13T00:05:05.885Z,-1.29
2017-02-13T00:08:02.889Z,-1.26
2017-02-13T00:11:16.363Z,-1.24
2017-02-13T00:14:21.271Z,-1.26
2017-02-13T00:20:33.509Z,-1.20
2017-02-13T00:23:35.802Z,-1.20
2017-02-13T00:26:40.620Z,-1.17
2017-02-13T00:29:45.432Z,-1.14
2017-02-13T00:32:49.411Z,-1.15
2017-02-13T00:35:54.180Z,-1.13
2017-02-13T00:38:58.907Z,-1.15
2017-02-13T00:42:03.891Z,-1.13
2017-02-13T00:48:11.158Z,-1.07
2017-02-13T00:51:15.659Z,-1.01
2017-02-13T00:54:22.241Z,-2.96
2017-02-13T01:00:29.865Z,-2.91
2017-02-13T01:06:39.722Z,-2.89
2017-02-13T01:09:41.994Z,-2.83
2017-02-13T01:12:48.717Z,-2.78
2017-02-13T02:32:22.577Z,-2.25
2017-02-13T02:35:19.372Z,-2.24
2017-02-13T02:38:27.764Z,-2.18
2017-02-13T02:41:37.474Z,-2.15
2017-02-13T02:44:42.159Z,-2.13
2017-02-13T02:47:38.859Z,-2.08
2017-02-13T02:53:58.908Z,-2.04
2017-02-13T02:56:52.539Z,-2.03
2017-02-13T03:00:01.012Z,-3.00
2017-02-13T03:03:10.915Z,-3.95
2017-02-13T03:52:10.669Z,-3.59
2017-02-13T03:55:18.928Z,-3.56
2017-02-13T03:58:29.209Z,-3.58
2017-02-13T04:01:33.557Z,-3.53
2017-02-13T04:04:38.189Z,-3.44
2017-02-13T04:07:42.744Z,-3.40
2017-02-13T04:10:47.540Z,-3.36
2017-02-13T04:13:54.091Z,-3.39
2017-02-13T04:16:56.350Z,-3.38
2017-02-13T04:20:00.494Z,-3.38
2017-02-13T04:23:05.311Z,-3.34
2017-02-13T04:26:09.951Z,-3.32
2017-02-13T04:29:14.953Z,-3.34
2017-02-13T04:32:10.398Z,-3.32
2017-02-13T04:35:25.740Z,-3.31
2017-02-13T04:38:27.903Z,-3.29
2017-02-13T04:41:32.667Z,-3.28
2017-02-13T04:44:37.261Z,-3.23
2017-02-13T04:47:44.551Z,-3.21
2017-02-13T04:50:37.729Z,-3.18
2017-02-13T04:53:52.984Z,-3.17
2017-02-13T04:56:56.951Z,-3.17
2017-02-13T04:59:56.670Z,-3.20
2017-02-13T05:03:01.189Z,-3.15
2017-02-13T05:15:17.063Z,-3.01
2017-02-13T05:18:21.680Z,-3.02
2017-02-13T05:24:31.192Z,-3.02
2017-02-13T05:27:35.880Z,-4.97
2017-02-13T05:30:39.817Z,-4.93
2017-02-13T05:36:49.492Z,-4.84
2017-02-13T05:39:54.795Z,-4.82
2017-02-13T05:55:12.403Z,-4.73
2017-02-13T05:58:18.869Z,-4.72
2017-02-13T06:01:20.738Z,-4.70
2017-02-13T06:04:17.252Z,-4.66
2017-02-13T06:07:30.553Z,-4.64
2017-02-13T06:10:34.519Z,-4.64
2017-02-13T06:13:39.260Z,-4.62
2017-02-13T06:16:43.964Z,-4.57
2017-02-13T06:19:48.638Z,-4.57
2017-02-13T06:22:53.209Z,-4.56
2017-02-13T06:25:51.026Z,-4.53
2017-02-13T06:32:08.137Z,-4.52
2017-02-13T06:35:12.662Z,-4.52
2017-02-13T06:38:17.258Z,-4.50
2017-02-13T06:41:21.859Z,-4.51
2017-02-13T06:44:26.036Z,-4.54
2017-02-13T06:53:39.917Z,-4.52
2017-02-13T06:59:49.409Z,-4.51
2017-02-13T07:02:53.946Z,-4.54
2017-02-13T07:05:58.552Z,-4.53
2017-02-13T07:08:55.689Z,-4.51
2017-02-13T07:12:07.850Z,-4.54
2017-02-13T07:15:12.551Z,-4.56
2017-02-13T07:18:09.151Z,-4.62
2017-02-13T07:21:22.509Z,-4.65
2017-02-13T07:24:27.084Z,-4.70
2017-02-13T07:27:23.957Z,-4.75
2017-02-13T07:30:37.242Z,-4.76
2017-02-13T07:33:41.713Z,-4.79
2017-02-13T07:39:52.877Z,-4.81
2017-02-13T07:42:55.267Z,-4.84
2017-02-13T07:48:59.798Z,-4.91
2017-02-13T07:52:09.917Z,-4.99
2017-02-13T07:55:14.808Z,-3.01
2017-02-13T07:58:16.671Z,-3.04
2017-02-13T08:01:21.235Z,-3.03
2017-02-13T08:07:21.830Z,-3.10
2017-02-13T08:13:40.126Z,-3.17
2017-02-13T08:16:44.820Z,-3.21
2017-02-13T08:19:49.064Z,-3.20
2017-02-13T08:22:53.725Z,-3.25
2017-02-13T08:25:58.411Z,-3.35
2017-02-13T08:32:09.912Z,-3.51
2017-02-13T08:35:11.561Z,-3.59
2017-02-13T08:38:16.298Z,-3.67
2017-02-13T08:41:20.920Z,-3.77
2017-02-13T08:44:25.505Z,-3.92
2017-02-13T08:47:29.297Z,-2.08
2017-02-13T08:50:36.147Z,-2.37
2017-02-13T08:53:36.147Z,-2.77
2017-02-13T08:56:33.832Z,-1.17
2017-02-13T08:59:46.654Z,-1.61
2017-02-13T09:02:51.289Z,0.06
2017-02-13T09:45:49.420Z,3.19
2017-02-13T10:13:30.266Z,5.09
2017-02-13T10:16:34.104Z,5.38
2017-02-13T10:19:26.577Z,5.53
2017-02-13T10:22:42.146Z,5.61
2017-02-13T10:38:04.315Z,6.33
2017-02-13T10:41:10.027Z,6.61
2017-02-13T10:44:14.174Z,6.60
2017-02-13T10:47:11.114Z,6.81
2017-02-13T10:50:20.006Z,6.65
2017-02-13T10:53:30.212Z,6.47
2017-02-13T10:56:35.502Z,6.67
2017-02-13T10:59:32.685Z,6.83
2017-02-13T11:08:56.210Z,6.77
2017-02-13T11:24:19.691Z,7.58
2017-02-13T11:36:41.194Z,7.95
2017-02-13T11:39:43.972Z,8.11
2017-02-13T11:42:49.522Z,7.95
2017-02-13T11:45:54.779Z,8.17
2017-02-13T11:49:00.013Z,8.43
2017-02-13T11:55:10.503Z,8.31
2017-02-13T11:58:10.846Z,8.47
2017-02-13T12:01:16.363Z,8.47
2017-02-13T12:04:27.293Z,8.24
2017-02-13T12:07:24.394Z,8.12
2017-02-13T12:10:39.713Z,8.05
2017-02-13T12:13:37.644Z,8.15
2017-02-13T12:16:43.195Z,8.07
2017-02-13T12:19:54.134Z,8.18
2017-02-13T12:22:59.582Z,8.06
2017-02-13T12:26:03.038Z,7.92
2017-02-13T12:29:08.429Z,7.55
2017-02-13T12:35:18.185Z,7.45
2017-02-13T12:38:23.333Z,7.45
2017-02-13T12:45:31.878Z,7.43
2017-02-13T12:47:38.639Z,7.43
2017-02-13T12:50:44.136Z,7.42
2017-02-13T12:56:52.986Z,7.25
2017-02-13T12:59:58.140Z,7.12
2017-02-13T13:03:03.674Z,6.95
2017-02-13T13:06:08.528Z,6.84
2017-02-13T13:09:13.956Z,6.82
2017-02-13T13:12:19.322Z,6.90
2017-02-13T13:15:24.568Z,6.61
2017-02-13T13:18:29.909Z,6.38
2017-02-13T13:21:35.177Z,6.23
2017-02-13T13:24:40.495Z,6.08
2017-02-13T13:30:51.325Z,5.89
2017-02-13T13:33:56.551Z,5.77
2017-02-13T13:37:01.798Z,5.70
2017-02-13T13:40:07.006Z,5.57
2017-02-13T13:43:12.098Z,5.42
2017-02-13T13:49:22.426Z,5.29
2017-02-13T13:55:28.165Z,4.91
2017-02-13T13:58:33.128Z,4.89
2017-02-13T14:04:43.295Z,4.45
2017-02-13T14:10:53.844Z,4.39
2017-02-13T14:17:03.331Z,4.37
2017-02-13T14:20:08.470Z,4.22
2017-02-13T14:32:27.783Z,3.65
2017-02-13T14:44:47.871Z,3.29
2017-02-13T14:47:52.720Z,3.28
2017-02-13T14:50:57.788Z,3.32
2017-02-13T15:00:10.937Z,3.23
2017-02-13T15:18:34.020Z,2.54
2017-02-13T15:27:49.611Z,2.29
2017-02-13T15:33:59.254Z,2.11
2017-02-13T15:52:25.926Z,1.56
2017-02-13T15:58:35.202Z,1.39
2017-02-13T16:10:54.460Z,1.11
2017-02-13T16:17:03.385Z,0.86
2017-02-13T16:26:16.202Z,0.69
2017-02-13T16:44:40.285Z,0.13
2017-02-13T16:47:44.948Z,0.07
2017-02-13T16:53:53.972Z,0.96
2017-02-13T16:56:58.790Z,0.95
2017-02-13T17:00:03.624Z,0.91
2017-02-13T17:03:08.251Z,0.85
2017-02-13T17:06:13.043Z,0.81
2017-02-13T17:09:17.779Z,0.73
2017-02-13T17:15:27.026Z,0.55
2017-02-13T17:21:36.086Z,0.49
2017-02-13T17:27:45.024Z,0.42
2017-02-13T17:30:49.927Z,0.34
2017-02-13T17:33:54.461Z,0.30
2017-02-13T17:36:59.222Z,0.26
2017-02-13T17:43:08.142Z,0.16
2017-02-13T17:46:12.867Z,0.09
2017-02-13T17:49:19.755Z,0.07
2017-02-13T17:52:21.342Z,0.03
2017-02-13T17:55:26.245Z,-1.00
2017-02-13T17:58:23.123Z,-1.92
2017-02-13T18:01:36.432Z,-1.87
2017-02-13T18:04:33.108Z,-1.84
2017-02-13T18:07:38.639Z,-1.82
2017-02-13T18:10:52.154Z,-1.80
2017-02-13T18:13:51.925Z,-1.77
2017-02-13T18:17:02.543Z,-1.77
2017-02-13T18:20:07.049Z,-1.67
2017-02-13T18:23:03.823Z,-1.68
2017-02-13T18:44:43.716Z,-1.60
2017-02-13T18:47:48.480Z,-1.51
2017-02-13T18:57:01.669Z,-1.51
2017-02-13T19:00:06.375Z,-1.48
2017-02-13T19:06:16.278Z,-1.45
2017-02-13T19:09:11.311Z,-1.45
2017-02-13T19:12:19.849Z,-1.49
2017-02-13T19:15:30.087Z,-1.45
2017-02-13T19:18:34.969Z,-1.41
2017-02-13T19:24:44.029Z,-1.42
2017-02-13T19:27:48.384Z,-1.43
2017-02-13T19:30:44.949Z,-1.45
2017-02-13T19:34:00.443Z,-1.42
2017-02-13T19:40:08.116Z,-1.36
2017-02-13T19:46:17.678Z,-1.30
2017-02-13T20:07:46.775Z,-1.02
2017-02-13T20:13:55.203Z,-1.10
2017-02-13T20:16:59.472Z,-1.07
2017-02-13T20:26:11.920Z,-1.08
2017-02-13T20:29:18.368Z,-1.14
2017-02-13T20:32:20.470Z,-1.19
2017-02-13T20:38:30.575Z,-1.18
2017-02-13T20:41:35.257Z,-1.10
2017-02-13T20:44:31.797Z,-1.03
2017-02-13T20:47:37.170Z,-1.05
2017-02-13T20:50:52.529Z,-2.98
2017-02-13T20:53:54.083Z,-2.87
2017-02-13T21:00:04.076Z,-2.80
2017-02-13T21:03:08.931Z,-2.88
2017-02-13T21:12:23.045Z,-1.02
2017-02-13T21:15:18.724Z,-1.01
2017-02-13T21:18:32.142Z,-1.06
2017-02-13T21:21:36.574Z,-1.09
2017-02-13T21:24:41.423Z,-1.05
2017-02-13T21:27:46.241Z,-1.08
2017-02-13T21:30:51.087Z,-1.09
2017-02-13T21:36:58.999Z,-1.02
2017-02-13T21:39:52.462Z,-2.97
2017-02-13T21:43:05.895Z,-1.05
2017-02-13T21:46:10.560Z,-1.09
2017-02-13T21:49:16.046Z,-1.13
2017-02-13T21:52:20.542Z,-1.18
2017-02-13T21:55:24.868Z,-1.17
2017-02-13T21:58:24.986Z,-1.16
2017-02-13T22:01:31.604Z,-1.14
2017-02-13T22:04:33.968Z,-1.17
2017-02-13T22:07:38.878Z,-1.15
2017-02-13T22:10:43.587Z,-1.10
2017-02-13T22:13:49.964Z,-1.06
2017-02-13T22:16:50.600Z,-1.04
2017-02-13T22:19:50.394Z,-1.03
2017-02-13T22:23:03.029Z,-1.01
2017-02-13T22:26:04.894Z,-1.01
2017-02-13T22:29:04.734Z,-2.99
2017-02-13T22:35:19.899Z,-2.87
2017-02-13T22:38:24.530Z,-2.86
2017-02-13T22:41:29.520Z,-2.92
2017-02-13T22:44:25.931Z,-2.97
2017-02-13T22:47:39.468Z,-2.99
2017-02-13T22:56:55.134Z,-2.95
2017-02-13T23:00:00.067Z,-2.96
2017-02-13T23:18:27.285Z,-2.78
2017-02-13T23:39:55.597Z,-2.75
2017-02-13T23:42:55.389Z,-2.75
